Time;durP1;ratioP1;P1;durP2;ratioP2;P2;SDS_P1;SDS_P2;PMS_P1;PMS_P2;Temp;Humidity;BMP_temperature;BMP_pressure;BME280_temperature;BME280_humidity;BME280_pressure;Samples;Min_cycle;Max_cycle;Signal;HPM_P1;HPM_P2
2022/02/25 00:00:52;;;;;;;2.13;0.75;;;5.60;80.00;;;;;;4992603;28;20513;-70
2022/02/25 00:03:18;;;;;;;1.45;0.70;;;5.50;80.30;;;;;;5000243;28;20053;-69
2022/02/25 00:05:44;;;;;;;0.98;0.90;;;5.40;80.10;;;;;;4997265;28;20053;-69
2022/02/25 00:08:10;;;;;;;2.15;0.75;;;5.30;80.30;;;;;;4997547;28;20080;-70
2022/02/25 00:10:36;;;;;;;1.05;0.80;;;5.30;82.00;;;;;;4992087;28;20174;-69
2022/02/25 00:13:03;;;;;;;1.10;0.90;;;5.30;81.80;;;;;;4996931;28;20180;-70
2022/02/25 00:15:29;;;;;;;1.58;0.80;;;5.20;82.00;;;;;;4999448;28;20038;-70
2022/02/25 00:17:55;;;;;;;1.98;0.90;;;5.20;82.30;;;;;;4995568;28;20041;-69
2022/02/25 00:20:21;;;;;;;2.50;1.10;;;5.20;81.80;;;;;;4996440;28;20069;-69
2022/02/25 00:22:46;;;;;;;0.95;0.77;;;5.10;82.70;;;;;;4997796;28;20069;-69
2022/02/25 00:25:13;;;;;;;1.95;0.85;;;5.10;82.40;;;;;;4999784;28;20397;-70
2022/02/25 00:27:43;;;;;;;2.78;0.75;;;5.10;82.80;;;;;;4997319;28;20781;-69
2022/02/25 00:30:11;;;;;;;0.90;0.90;;;5.00;82.80;;;;;;5000256;28;20044;-69
2022/02/25 00:32:37;;;;;;;0.70;0.70;;;5.00;82.70;;;;;;4992573;28;20109;-70
2022/02/25 00:35:03;;;;;;;4.57;0.80;;;4.90;82.90;;;;;;4997945;28;20112;-69
2022/02/25 00:37:29;;;;;;;1.58;0.90;;;4.90;82.40;;;;;;5000245;28;20092;-69
2022/02/25 00:39:55;;;;;;;0.82;0.82;;;5.00;82.90;;;;;;4996437;28;20038;-69
2022/02/25 00:42:21;;;;;;;2.33;0.85;;;5.10;83.00;;;;;;4995592;28;20042;-69
2022/02/25 00:44:47;;;;;;;1.02;0.70;;;5.20;81.70;;;;;;4991018;28;20061;-70
2022/02/25 00:47:13;;;;;;;0.63;0.63;;;5.30;81.40;;;;;;5000279;28;20029;-69
2022/02/25 00:49:39;;;;;;;2.65;0.70;;;5.30;81.30;;;;;;4996391;28;20030;-69
2022/02/25 00:52:05;;;;;;;2.55;0.93;;;5.40;81.10;;;;;;4996398;28;20034;-69
2022/02/25 00:54:30;;;;;;;1.20;0.82;;;5.40;81.10;;;;;;4989907;28;20116;-69
2022/02/25 00:56:56;;;;;;;3.13;0.80;;;5.40;81.40;;;;;;4998419;28;20128;-69
2022/02/25 00:59:22;;;;;;;1.73;0.70;;;5.30;81.10;;;;;;4996113;28;20163;-69
2022/02/25 01:01:47;;;;;;;0.88;0.73;;;5.30;81.40;;;;;;4996246;28;20033;-69
2022/02/25 01:04:14;;;;;;;1.55;0.90;;;5.30;81.90;;;;;;4993485;28;20776;-69
2022/02/25 01:06:41;;;;;;;1.55;0.90;;;5.20;82.40;;;;;;4992832;28;20719;-69
2022/02/25 01:09:07;;;;;;;1.08;0.98;;;5.20;82.80;;;;;;4993648;28;20052;-69
2022/02/25 01:11:32;;;;;;;1.15;0.95;;;5.10;83.10;;;;;;4996325;28;20057;-69
2022/02/25 01:13:58;;;;;;;3.45;1.08;;;4.90;83.60;;;;;;4994148;28;20384;-69
2022/02/25 01:16:24;;;;;;;3.08;0.70;;;4.90;84.00;;;;;;4993191;28;20034;-69
2022/02/25 01:18:50;;;;;;;1.20;1.10;;;4.90;84.50;;;;;;4999753;28;20041;-69
2022/02/25 01:21:15;;;;;;;1.40;1.10;;;5.00;84.50;;;;;;5004192;28;20033;-69
2022/02/25 01:23:41;;;;;;;1.70;1.17;;;5.20;83.90;;;;;;4998915;28;20026;-69
2022/02/25 01:26:08;;;;;;;1.77;0.93;;;5.30;83.40;;;;;;4997937;28;20121;-69
2022/02/25 01:28:34;;;;;;;1.52;0.93;;;5.30;82.70;;;;;;4999075;28;20719;-70
2022/02/25 01:31:03;;;;;;;2.30;1.15;;;5.30;82.50;;;;;;5002512;28;20034;-70
2022/02/25 01:33:29;;;;;;;1.45;0.80;;;5.50;82.00;;;;;;5001544;28;20101;-69
2022/02/25 01:35:55;;;;;;;2.72;1.00;;;5.50;81.20;;;;;;4998670;28;20035;-70
2022/02/25 01:38:21;;;;;;;2.17;1.00;;;5.50;81.30;;;;;;4997328;28;20029;-69
2022/02/25 01:40:50;;;;;;;3.95;1.10;;;5.40;81.00;;;;;;5001350;28;20030;-69
2022/02/25 01:43:16;;;;;;;1.73;0.90;;;5.40;80.90;;;;;;5001662;28;20117;-69
2022/02/25 01:45:42;;;;;;;3.30;0.80;;;5.50;80.90;;;;;;4998065;28;20637;-69
2022/02/25 01:48:07;;;;;;;1.75;1.00;;;5.60;80.50;;;;;;4998297;28;20034;-70
2022/02/25 01:50:35;;;;;;;2.40;0.82;;;5.70;79.70;;;;;;4998024;28;20116;-69
2022/02/25 01:53:05;;;;;;;3.42;0.90;;;5.80;79.10;;;;;;5002036;28;20097;-70
2022/02/25 01:55:32;;;;;;;3.42;0.98;;;5.80;79.20;;;;;;5002216;28;20095;-70
2022/02/25 01:58:00;;;;;;;2.30;1.55;;;5.90;79.00;;;;;;4999088;28;20042;-69
2022/02/25 02:00:26;;;;;;;3.95;1.08;;;6.00;78.90;;;;;;5001903;28;20052;-69
2022/02/25 02:02:52;;;;;;;2.80;0.90;;;5.90;78.40;;;;;;5003299;28;20040;-70
2022/02/25 02:05:18;;;;;;;6.20;1.08;;;5.90;78.70;;;;;;5003862;28;20021;-70
2022/02/25 02:07:44;;;;;;;2.80;1.00;;;5.90;78.50;;;;;;4997647;28;20030;-69
2022/02/25 02:10:11;;;;;;;7.32;0.95;;;5.90;79.00;;;;;;4998814;28;20029;-69
2022/02/25 02:12:37;;;;;;;2.17;1.15;;;5.90;78.80;;;;;;5000218;28;20034;-69
2022/02/25 02:15:04;;;;;;;5.05;1.13;;;5.90;79.10;;;;;;5001532;28;20078;-70
2022/02/25 02:17:31;;;;;;;6.10;1.45;;;5.80;79.60;;;;;;5002517;28;20210;-69
2022/02/25 02:19:57;;;;;;;5.25;1.02;;;5.80;79.70;;;;;;4996096;28;20113;-69
2022/02/25 02:22:24;;;;;;;5.00;1.17;;;5.80;79.80;;;;;;5004408;28;20037;-69
2022/02/25 02:24:50;;;;;;;2.58;1.00;;;5.70;79.60;;;;;;5001756;28;20041;-70
2022/02/25 02:27:16;;;;;;;2.00;0.93;;;5.60;80.40;;;;;;5001128;28;20054;-69
2022/02/25 02:29:42;;;;;;;5.32;1.45;;;5.40;81.10;;;;;;4996512;28;20254;-69
2022/02/25 02:32:08;;;;;;;6.22;1.40;;;5.20;81.70;;;;;;4997748;28;20036;-69
2022/02/25 02:34:33;;;;;;;2.67;0.75;;;5.10;81.80;;;;;;4999799;28;20927;-70
2022/02/25 02:36:59;;;;;;;3.40;1.10;;;4.90;82.50;;;;;;5001106;28;20045;-69
2022/02/25 02:39:25;;;;;;;6.28;1.52;;;4.80;83.30;;;;;;4998486;28;20169;-69
2022/02/25 02:41:51;;;;;;;8.00;1.52;;;4.70;83.60;;;;;;4994220;28;20061;-69
2022/02/25 02:44:16;;;;;;;7.35;1.35;;;4.60;83.90;;;;;;4994079;28;20481;-69
2022/02/25 02:46:42;;;;;;;7.53;1.65;;;4.60;84.50;;;;;;4996199;28;20038;-69
2022/02/25 02:49:08;;;;;;;4.82;1.40;;;4.50;84.90;;;;;;5000607;28;20088;-69
2022/02/25 02:51:34;;;;;;;3.85;1.10;;;4.50;85.00;;;;;;4996660;28;20030;-69
2022/02/25 02:54:00;;;;;;;4.72;1.30;;;4.40;85.20;;;;;;4995250;28;20452;-69
2022/02/25 02:56:26;;;;;;;7.43;1.40;;;4.40;86.00;;;;;;4999547;28;20029;-69
2022/02/25 02:58:55;;;;;;;4.25;1.50;;;4.30;86.00;;;;;;5001724;28;20040;-69
2022/02/25 03:01:32;;;;;;;10.02;1.88;;;4.30;86.40;;;;;;4995100;28;20029;-69
2022/02/25 03:04:01;;;;;;;4.22;1.23;;;4.30;86.10;;;;;;4995773;28;20465;-69
2022/02/25 03:06:28;;;;;;;4.70;1.30;;;4.20;86.50;;;;;;4999701;28;20034;-69
2022/02/25 03:08:55;;;;;;;8.27;1.67;;;4.20;86.50;;;;;;5000910;28;20034;-69
2022/02/25 03:11:21;;;;;;;4.28;1.15;;;4.20;87.00;;;;;;5000191;28;20029;-69
2022/02/25 03:13:48;;;;;;;7.30;1.42;;;4.10;87.00;;;;;;4993814;28;20045;-69
2022/02/25 03:16:14;;;;;;;6.28;1.73;;;4.10;87.30;;;;;;4999947;28;20033;-69
2022/02/25 03:18:40;;;;;;;7.65;1.40;;;4.20;87.30;;;;;;5001298;28;20061;-69
2022/02/25 03:21:07;;;;;;;6.25;1.70;;;4.10;87.40;;;;;;4999557;28;20137;-69
2022/02/25 03:23:33;;;;;;;1.77;1.30;;;4.00;87.80;;;;;;4996545;28;20826;-69
2022/02/25 03:25:58;;;;;;;5.20;1.30;;;4.00;87.60;;;;;;4995485;28;20045;-70
2022/02/25 03:28:24;;;;;;;6.65;1.35;;;4.00;87.80;;;;;;4998718;28;20042;-69
2022/02/25 03:30:50;;;;;;;3.22;1.20;;;3.90;88.10;;;;;;4999696;28;20080;-69
2022/02/25 03:33:16;;;;;;;3.17;1.30;;;3.90;88.10;;;;;;4998427;28;20111;-69
2022/02/25 03:35:41;;;;;;;5.93;1.55;;;3.80;88.30;;;;;;4994135;28;20034;-69
2022/02/25 03:38:07;;;;;;;5.88;1.23;;;3.80;88.70;;;;;;4994977;28;20038;-69
2022/02/25 03:40:33;;;;;;;4.75;1.65;;;3.80;89.00;;;;;;5001064;28;20041;-69
2022/02/25 03:42:58;;;;;;;5.43;1.42;;;3.80;88.90;;;;;;4998622;28;20043;-69
2022/02/25 03:45:24;;;;;;;6.97;1.92;;;3.80;88.90;;;;;;4996879;28;20160;-69
2022/02/25 03:47:50;;;;;;;5.15;1.52;;;3.80;89.00;;;;;;4992485;28;20398;-69
2022/02/25 03:50:16;;;;;;;6.55;1.95;;;3.80;89.00;;;;;;4998521;28;20026;-69
2022/02/25 03:52:42;;;;;;;7.38;1.77;;;3.70;89.40;;;;;;4997557;28;20038;-69
2022/02/25 03:55:08;;;;;;;7.90;1.70;;;3.70;89.40;;;;;;4998170;28;20033;-69
2022/02/25 03:57:35;;;;;;;3.88;1.70;;;3.70;89.40;;;;;;4994665;28;20041;-69
2022/02/25 04:00:00;;;;;;;8.30;1.75;;;3.70;89.40;;;;;;4994063;28;20109;-69
2022/02/25 04:02:27;;;;;;;5.57;1.63;;;3.70;89.60;;;;;;5001061;28;20077;-69
2022/02/25 04:04:52;;;;;;;8.52;2.10;;;3.70;89.70;;;;;;4996888;28;20046;-69
2022/02/25 04:07:18;;;;;;;2.78;1.58;;;3.70;89.80;;;;;;4997244;28;20414;-69
2022/02/25 04:09:44;;;;;;;6.95;2.00;;;3.70;89.80;;;;;;4992115;28;20128;-69
2022/02/25 04:12:11;;;;;;;8.75;1.90;;;3.70;89.90;;;;;;4997594;28;20070;-69
2022/02/25 04:14:36;;;;;;;7.10;2.55;;;3.70;89.80;;;;;;4998365;28;20139;-69
2022/02/25 04:17:03;;;;;;;4.25;1.80;;;3.70;89.90;;;;;;4996911;28;20030;-69
2022/02/25 04:19:30;;;;;;;5.63;2.22;;;3.60;90.00;;;;;;4994949;28;20043;-69
2022/02/25 04:21:55;;;;;;;7.72;2.13;;;3.70;89.90;;;;;;4992491;28;20034;-69
2022/02/25 04:24:21;;;;;;;7.68;2.17;;;3.60;89.70;;;;;;4998107;28;20088;-69
2022/02/25 04:26:47;;;;;;;6.03;1.55;;;3.60;90.00;;;;;;4994246;28;20041;-69
2022/02/25 04:29:13;;;;;;;4.40;1.90;;;3.60;90.00;;;;;;4993970;28;20029;-69
2022/02/25 04:31:39;;;;;;;4.57;1.83;;;3.70;90.00;;;;;;4989299;28;20046;-69
2022/02/25 04:34:05;;;;;;;3.17;1.67;;;3.60;90.00;;;;;;4997600;28;20030;-69
2022/02/25 04:36:33;;;;;;;5.20;1.73;;;3.60;89.90;;;;;;4997634;28;20032;-69
2022/02/25 04:38:59;;;;;;;2.28;1.50;;;3.60;89.70;;;;;;4994353;28;20512;-69
2022/02/25 04:41:25;;;;;;;5.18;1.90;;;3.60;89.70;;;;;;4992573;28;20048;-69
2022/02/25 04:43:51;;;;;;;4.60;1.88;;;3.60;90.00;;;;;;4992865;28;20029;-69
2022/02/25 04:46:19;;;;;;;5.00;1.65;;;3.60;90.10;;;;;;4998293;28;20053;-69
2022/02/25 04:48:46;;;;;;;3.05;1.50;;;3.60;90.00;;;;;;4993631;28;20034;-69
2022/02/25 04:51:18;;;;;;;5.72;1.98;;;3.60;90.10;;;;;;4995692;28;20120;-69
2022/02/25 04:53:45;;;;;;;7.55;1.98;;;3.60;90.10;;;;;;4992001;28;20062;-69
2022/02/25 04:56:12;;;;;;;4.80;1.33;;;3.60;90.00;;;;;;5001704;28;20068;-69
2022/02/25 04:58:38;;;;;;;4.88;1.85;;;3.60;89.90;;;;;;4996806;28;20068;-69
2022/02/25 05:01:04;;;;;;;6.57;1.83;;;3.60;89.90;;;;;;4997873;28;20026;-70
2022/02/25 05:03:32;;;;;;;6.72;1.63;;;3.60;89.90;;;;;;4994704;28;20145;-70
2022/02/25 05:05:59;;;;;;;8.77;1.30;;;3.60;89.90;;;;;;4995209;28;20026;-69
2022/02/25 05:08:25;;;;;;;6.10;1.70;;;3.50;89.80;;;;;;4994864;28;20052;-68
2022/02/25 05:10:52;;;;;;;8.02;2.60;;;3.50;89.90;;;;;;4990256;28;20034;-69
2022/02/25 05:13:18;;;;;;;3.65;1.67;;;3.50;89.90;;;;;;4991941;28;20042;-69
2022/02/25 05:21:13;;;;;;;5.75;1.67;;;3.30;90.00;;;;;;4988017;28;20706;-69
2022/02/25 05:23:39;;;;;;;13.13;1.98;;;3.30;90.20;;;;;;4989311;28;20121;-69
2022/02/25 05:26:05;;;;;;;4.40;1.63;;;3.30;90.30;;;;;;4985997;28;20038;-69
2022/02/25 05:28:30;;;;;;;5.07;1.83;;;3.20;90.40;;;;;;4987229;28;20030;-69
2022/02/25 05:30:56;;;;;;;7.38;1.50;;;3.10;90.40;;;;;;4992336;28;20040;-69
2022/02/25 05:33:22;;;;;;;4.18;1.67;;;3.10;90.50;;;;;;4985914;28;20034;-69
2022/02/25 05:35:48;;;;;;;4.13;1.70;;;3.10;90.60;;;;;;4990675;28;20065;-68
2022/02/25 05:38:13;;;;;;;3.85;1.67;;;3.00;90.50;;;;;;4988738;28;20062;-69
2022/02/25 05:40:40;;;;;;;5.72;1.90;;;3.10;90.50;;;;;;4995794;28;20038;-69
2022/02/25 05:43:07;;;;;;;6.22;2.28;;;3.10;90.60;;;;;;4989555;28;20040;-69
2022/02/25 05:45:32;;;;;;;5.55;1.65;;;3.10;90.50;;;;;;4992235;28;20060;-69
2022/02/25 05:47:58;;;;;;;2.95;1.67;;;3.20;90.40;;;;;;4997625;28;20557;-69
2022/02/25 05:50:25;;;;;;;6.05;1.60;;;3.20;90.30;;;;;;4993985;28;20037;-69
2022/02/25 05:52:52;;;;;;;4.70;2.15;;;3.10;90.30;;;;;;4995628;28;20089;-69
2022/02/25 05:55:20;;;;;;;4.43;1.20;;;3.10;90.40;;;;;;4997121;28;20109;-70
2022/02/25 05:57:46;;;;;;;3.00;1.88;;;3.00;90.50;;;;;;4989618;28;20043;-69
2022/02/25 06:00:14;;;;;;;3.10;1.58;;;3.00;90.40;;;;;;4987980;28;20489;-69
2022/02/25 06:02:41;;;;;;;3.50;1.63;;;3.00;90.50;;;;;;4995647;28;20046;-69
2022/02/25 06:05:07;;;;;;;4.68;1.80;;;3.00;90.60;;;;;;4987849;28;20019;-69
2022/02/25 06:07:33;;;;;;;1.75;1.45;;;3.00;90.50;;;;;;4991605;28;20049;-69
2022/02/25 06:09:59;;;;;;;8.13;2.05;;;2.90;90.60;;;;;;4990485;28;20038;-69
2022/02/25 06:12:25;;;;;;;6.15;2.10;;;2.90;90.70;;;;;;4999476;28;20040;-69
2022/02/25 06:14:51;;;;;;;6.30;1.90;;;2.90;90.50;;;;;;4997809;28;20127;-69
2022/02/25 06:17:16;;;;;;;8.30;2.20;;;3.00;90.50;;;;;;4990762;28;20080;-70
2022/02/25 06:19:42;;;;;;;4.10;1.88;;;3.10;90.50;;;;;;4993963;28;20041;-69
2022/02/25 06:22:08;;;;;;;7.15;2.15;;;3.40;90.10;;;;;;4993388;28;20066;-69
2022/02/25 06:24:34;;;;;;;4.65;2.20;;;3.60;88.70;;;;;;4996030;28;20489;-69
2022/02/25 06:27:00;;;;;;;6.63;2.38;;;3.80;87.70;;;;;;4994227;28;20038;-69
2022/02/25 06:29:25;;;;;;;7.50;2.42;;;3.90;86.70;;;;;;4995479;28;20691;-69
2022/02/25 06:31:51;;;;;;;3.53;2.30;;;4.00;85.70;;;;;;4993125;28;20206;-69
2022/02/25 06:34:17;;;;;;;15.23;2.58;;;3.90;87.00;;;;;;5000453;28;20102;-70
2022/02/25 06:36:43;;;;;;;2.80;2.00;;;4.00;86.30;;;;;;4995899;28;20041;-70
2022/02/25 06:39:09;;;;;;;9.48;2.30;;;4.00;86.20;;;;;;4998125;28;20034;-70
2022/02/25 06:41:35;;;;;;;3.15;1.80;;;4.00;86.30;;;;;;4993575;28;20613;-70
2022/02/25 06:44:01;;;;;;;4.40;1.83;;;4.00;85.40;;;;;;5000184;28;20030;-70
2022/02/25 06:46:27;;;;;;;4.72;1.80;;;4.10;84.90;;;;;;4998690;28;20026;-70
2022/02/25 06:48:53;;;;;;;4.72;1.70;;;4.10;85.00;;;;;;4995393;28;20049;-69
2022/02/25 06:51:18;;;;;;;5.25;2.00;;;4.10;84.70;;;;;;4993050;28;20038;-70
2022/02/25 06:53:44;;;;;;;10.95;2.17;;;4.30;83.90;;;;;;4995107;28;20034;-69
2022/02/25 06:56:10;;;;;;;5.60;1.35;;;4.50;83.00;;;;;;4994777;28;20038;-70
2022/02/25 06:58:36;;;;;;;4.80;1.88;;;4.40;82.10;;;;;;4992282;28;20091;-70
2022/02/25 07:01:03;;;;;;;4.90;1.70;;;4.60;82.00;;;;;;4996208;28;20049;-70
2022/02/25 07:03:29;;;;;;;5.68;2.00;;;4.80;81.50;;;;;;4995073;28;20038;-70
2022/02/25 07:05:56;;;;;;;5.43;2.30;;;5.00;80.40;;;;;;4998716;28;20062;-70
2022/02/25 07:08:22;;;;;;;5.18;1.80;;;5.10;79.50;;;;;;4999629;28;20067;-70
2022/02/25 07:10:48;;;;;;;6.20;1.83;;;5.30;79.10;;;;;;4992612;28;20038;-69
2022/02/25 07:13:14;;;;;;;10.18;2.13;;;5.10;78.90;;;;;;4998973;28;20026;-69
2022/02/25 07:15:40;;;;;;;4.15;1.52;;;5.00;79.60;;;;;;4993753;28;20402;-69
2022/02/25 07:18:07;;;;;;;6.70;1.80;;;5.30;79.00;;;;;;4995277;28;20033;-70
2022/02/25 07:20:33;;;;;;;6.40;1.33;;;5.50;78.20;;;;;;4997597;28;20482;-70
2022/02/25 07:22:58;;;;;;;4.10;1.90;;;5.60;76.80;;;;;;4996683;28;20044;-69
2022/02/25 07:25:24;;;;;;;3.70;1.85;;;5.70;76.40;;;;;;5002128;28;20041;-70
2022/02/25 07:27:50;;;;;;;5.68;1.63;;;5.70;75.70;;;;;;4997630;28;20143;-70
2022/02/25 07:30:17;;;;;;;7.07;1.80;;;5.90;75.30;;;;;;4996425;28;20069;-70
2022/02/25 07:32:43;;;;;;;3.97;1.50;;;6.00;75.30;;;;;;4993254;28;20030;-68
2022/02/25 07:35:11;;;;;;;8.70;2.10;;;5.90;74.60;;;;;;5005995;28;20065;-68
2022/02/25 07:37:38;;;;;;;5.40;1.65;;;5.80;74.70;;;;;;4988606;28;20482;-68
2022/02/25 07:40:05;;;;;;;5.80;2.40;;;5.60;75.00;;;;;;4994708;28;20030;-69
2022/02/25 07:42:31;;;;;;;9.00;2.47;;;5.50;76.30;;;;;;5000008;28;20100;-69
2022/02/25 07:44:57;;;;;;;7.15;2.05;;;5.60;76.40;;;;;;4997162;28;20038;-68
2022/02/25 07:47:24;;;;;;;4.38;1.75;;;6.00;75.00;;;;;;5001828;28;20087;-69
2022/02/25 07:49:50;;;;;;;7.70;1.60;;;5.90;73.50;;;;;;4997614;28;20053;-68
2022/02/25 07:52:17;;;;;;;6.80;1.98;;;5.90;74.20;;;;;;4992457;28;20459;-68
2022/02/25 07:54:42;;;;;;;4.85;1.65;;;6.00;74.80;;;;;;4999720;28;20141;-71
2022/02/25 07:57:08;;;;;;;4.10;1.10;;;6.20;73.70;;;;;;4993959;28;20116;-69
2022/02/25 07:59:34;;;;;;;6.45;1.58;;;6.80;72.10;;;;;;4989187;28;20810;-71
2022/02/25 08:02:00;;;;;;;8.68;1.70;;;8.50;64.00;;;;;;4997411;28;20129;-69
2022/02/25 08:04:25;;;;;;;4.63;1.65;;;9.60;59.80;;;;;;4990329;28;20113;-72
2022/02/25 08:06:52;;;;;;;5.43;1.23;;;11.00;56.50;;;;;;4989377;28;20037;-71
2022/02/25 08:09:23;;;;;;;6.35;1.23;;;12.10;52.40;;;;;;4990925;28;20444;-71
2022/02/25 08:11:49;;;;;;;6.07;2.10;;;11.70;51.40;;;;;;4996864;28;20414;-71
2022/02/25 08:14:15;;;;;;;5.18;1.48;;;10.90;52.90;;;;;;4994853;28;20041;-71
2022/02/25 08:16:40;;;;;;;6.47;1.20;;;11.50;51.60;;;;;;4999841;28;20046;-77
2022/02/25 08:19:07;;;;;;;8.52;1.20;;;11.20;51.80;;;;;;4999688;28;20030;-69
2022/02/25 08:21:34;;;;;;;7.13;1.15;;;10.80;53.30;;;;;;4993419;28;20041;-69
2022/02/25 08:24:00;;;;;;;9.10;1.27;;;10.40;54.60;;;;;;4998537;28;20033;-69
2022/02/25 08:26:26;;;;;;;7.88;1.45;;;11.70;53.20;;;;;;4997807;28;20034;-69
2022/02/25 08:28:52;;;;;;;6.10;1.27;;;12.20;51.40;;;;;;4989609;28;20109;-69
2022/02/25 08:31:18;;;;;;;4.68;1.50;;;11.30;51.40;;;;;;4993639;28;20490;-69
2022/02/25 08:33:44;;;;;;;10.02;2.05;;;10.90;52.80;;;;;;4991958;28;20041;-69
2022/02/25 08:36:10;;;;;;;5.40;1.15;;;11.30;51.90;;;;;;4998430;28;20670;-69
2022/02/25 08:38:35;;;;;;;5.30;1.63;;;11.30;51.90;;;;;;4995827;28;20040;-73
2022/02/25 08:41:03;;;;;;;3.47;0.80;;;10.80;53.40;;;;;;4996052;28;21348;-71
2022/02/25 08:43:29;;;;;;;2.72;1.10;;;10.20;53.70;;;;;;4989737;28;20707;-71
2022/02/25 08:45:55;;;;;;;4.72;1.25;;;9.30;56.00;;;;;;4993820;28;20093;-71
2022/02/25 08:48:21;;;;;;;6.72;1.70;;;8.80;59.00;;;;;;4997444;28;20034;-72
2022/02/25 08:50:47;;;;;;;3.28;1.38;;;8.70;59.70;;;;;;4990752;28;20042;-71
2022/02/25 08:53:12;;;;;;;6.15;1.23;;;8.50;59.00;;;;;;5000340;28;20030;-71
2022/02/25 08:55:38;;;;;;;7.13;1.48;;;8.60;59.20;;;;;;4993973;28;20052;-71
2022/02/25 08:58:05;;;;;;;5.10;1.83;;;8.30;60.00;;;;;;4991994;28;20579;-70
2022/02/25 09:00:31;;;;;;;7.32;1.27;;;8.70;60.10;;;;;;4992010;28;20041;-69
2022/02/25 09:02:57;;;;;;;6.95;1.65;;;9.20;57.80;;;;;;4999398;28;20025;-70
2022/02/25 09:05:24;;;;;;;7.35;1.63;;;9.50;56.70;;;;;;4991679;28;20383;-70
2022/02/25 09:07:51;;;;;;;7.00;1.25;;;9.70;57.80;;;;;;4991738;28;20049;-70
2022/02/25 09:10:18;;;;;;;4.10;1.50;;;9.80;58.40;;;;;;4991345;28;20022;-70
2022/02/25 09:12:45;;;;;;;4.20;1.90;;;10.60;55.00;;;;;;4991034;28;20038;-70
2022/02/25 09:15:14;;;;;;;3.28;1.08;;;12.20;51.30;;;;;;4991701;28;20169;-75
2022/02/25 09:17:40;;;;;;;10.18;1.35;;;14.70;46.00;;;;;;4991320;28;20030;-76
2022/02/25 09:20:08;;;;;;;5.57;1.08;;;15.30;42.10;;;;;;4988076;28;20538;-70
2022/02/25 09:22:34;;;;;;;7.15;1.30;;;15.30;41.80;;;;;;4991339;28;20030;-70
2022/02/25 09:25:00;;;;;;;5.18;1.40;;;15.90;42.20;;;;;;4998251;28;20125;-70
2022/02/25 09:27:27;;;;;;;7.97;1.33;;;18.20;37.20;;;;;;4995492;28;20033;-71
2022/02/25 09:29:54;;;;;;;10.20;1.77;;;21.30;33.40;;;;;;4997146;28;20030;-69
2022/02/25 09:32:19;;;;;;;6.50;1.52;;;21.40;32.40;;;;;;4994976;28;20046;-70
2022/02/25 09:34:46;;;;;;;6.53;1.50;;;19.80;34.00;;;;;;4982114;28;20093;-69
2022/02/25 09:37:11;;;;;;;6.68;1.60;;;16.90;38.80;;;;;;4992218;28;20065;-70
2022/02/25 09:39:37;;;;;;;5.65;1.05;;;14.90;43.40;;;;;;4996840;28;20038;-70
2022/02/25 09:42:05;;;;;;;5.25;1.40;;;13.40;45.60;;;;;;4999941;28;20472;-70
2022/02/25 09:44:33;;;;;;;4.55;1.30;;;12.40;48.50;;;;;;4993794;28;20026;-70
2022/02/25 09:46:59;;;;;;;4.78;1.20;;;12.90;48.20;;;;;;5001009;28;20034;-71
2022/02/25 09:49:25;;;;;;;7.53;1.63;;;14.90;45.00;;;;;;4998329;28;20041;-73
2022/02/25 09:51:52;;;;;;;7.70;1.83;;;15.50;41.00;;;;;;4995224;28;20034;-72
2022/02/25 09:54:19;;;;;;;8.98;1.48;;;15.60;41.60;;;;;;4999241;28;20033;-72
2022/02/25 09:56:46;;;;;;;6.47;1.73;;;16.70;40.00;;;;;;5000899;28;20496;-72
2022/02/25 09:59:13;;;;;;;6.18;1.20;;;18.80;35.50;;;;;;4997633;28;20034;-71
2022/02/25 10:01:39;;;;;;;4.70;1.30;;;19.60;34.20;;;;;;4998982;28;20046;-70
2022/02/25 10:04:22;;;;;;;6.43;2.28;;;18.90;35.90;;;;;;4995393;28;20027;-69
2022/02/25 10:06:48;;;;;;;6.50;1.75;;;17.80;37.50;;;;;;4995503;28;20031;-70
2022/02/25 10:09:33;;;;;;;9.70;1.65;;;16.50;38.00;;;;;;4997252;28;20038;-72
2022/02/25 10:12:01;;;;;;;7.72;2.10;;;15.70;41.80;;;;;;4994165;28;20050;-70
2022/02/25 10:14:33;;;;;;;9.18;4.60;;;15.40;41.50;;;;;;4991870;28;20129;-70
2022/02/25 10:17:06;;;;;;;12.25;4.53;;;14.50;43.70;;;;;;4991195;28;20561;-70
2022/02/25 10:19:31;;;;;;;14.52;5.70;;;13.90;45.10;;;;;;4995385;28;20133;-70
2022/02/25 10:22:16;;;;;;;11.90;5.03;;;14.10;45.30;;;;;;4997939;28;20117;-69
2022/02/25 10:24:50;;;;;;;11.07;3.03;;;14.60;44.10;;;;;;4997569;28;20077;-69
2022/02/25 10:27:18;;;;;;;8.27;2.30;;;15.50;42.50;;;;;;4998694;28;20127;-69
2022/02/25 10:29:59;;;;;;;6.40;1.92;;;16.00;41.10;;;;;;4991267;28;20112;-69
2022/02/25 10:32:33;;;;;;;12.73;3.88;;;15.00;42.60;;;;;;4991508;28;20116;-69
2022/02/25 10:35:00;;;;;;;7.07;2.38;;;13.60;44.30;;;;;;5004621;28;20074;-69
2022/02/25 10:37:27;;;;;;;6.15;2.75;;;12.20;47.80;;;;;;4991444;28;20209;-70
2022/02/25 10:39:53;;;;;;;6.45;1.40;;;11.20;50.20;;;;;;4990267;28;20034;-69
2022/02/25 10:42:25;;;;;;;5.35;2.42;;;10.60;52.30;;;;;;4996531;28;20091;-71
2022/02/25 10:45:02;;;;;;;10.05;5.05;;;10.30;54.20;;;;;;4993198;28;20057;-70
2022/02/25 10:47:34;;;;;;;12.77;2.60;;;10.80;52.90;;;;;;4994735;28;20076;-69
2022/02/25 10:50:09;;;;;;;7.32;2.40;;;10.20;53.20;;;;;;4991151;28;20062;-70
2022/02/25 10:52:38;;;;;;;8.60;4.45;;;10.10;55.10;;;;;;4995418;28;20041;-71
2022/02/25 10:55:10;;;;;;;10.48;3.40;;;9.50;55.80;;;;;;4990757;28;20033;-70
2022/02/25 10:57:36;;;;;;;15.55;4.55;;;9.20;56.80;;;;;;4995663;28;20038;-70
2022/02/25 11:00:07;;;;;;;22.58;6.07;;;9.20;57.40;;;;;;4998726;28;20676;-69
2022/02/25 11:02:48;;;;;;;17.17;5.07;;;9.50;56.50;;;;;;4999089;28;20069;-69
2022/02/25 11:05:16;;;;;;;19.27;5.82;;;10.30;54.30;;;;;;4993263;28;20056;-70
2022/02/25 11:07:45;;;;;;;17.55;5.20;;;10.60;53.10;;;;;;4997040;28;20037;-69
2022/02/25 11:10:13;;;;;;;9.32;3.03;;;10.30;54.20;;;;;;4998570;28;20030;-69
2022/02/25 11:12:42;;;;;;;22.90;6.88;;;9.80;55.30;;;;;;4992678;28;20096;-74
2022/02/25 11:15:11;;;;;;;8.85;1.73;;;10.60;55.20;;;;;;5006048;28;20103;-70
2022/02/25 11:17:38;;;;;;;10.82;3.70;;;11.90;50.20;;;;;;4996808;28;20038;-70
2022/02/25 11:20:08;;;;;;;22.13;6.05;;;11.80;49.90;;;;;;4998963;28;20127;-70
2022/02/25 11:22:38;;;;;;;14.43;3.55;;;11.70;50.90;;;;;;4995142;28;20069;-70
2022/02/25 11:25:07;;;;;;;10.93;3.70;;;11.70;50.10;;;;;;4994016;28;20111;-70
2022/02/25 11:27:33;;;;;;;18.88;5.75;;;11.80;50.10;;;;;;4991378;28;20080;-70
2022/02/25 11:30:11;;;;;;;9.82;2.63;;;11.70;50.40;;;;;;4993676;28;20054;-70
2022/02/25 11:32:58;;;;;;;25.35;7.95;;;11.30;50.30;;;;;;4998425;28;20518;-70
2022/02/25 11:35:26;;;;;;;;;;;11.20;52.20;;;;;;4996480;28;20120;-70
2022/02/25 11:37:59;;;;;;;8.05;2.65;;;10.80;51.60;;;;;;4996220;28;19913;-70
2022/02/25 11:40:55;;;;;;;19.42;4.20;;;10.40;53.10;;;;;;4995238;28;20042;-77
2022/02/25 11:43:36;;;;;;;9.23;2.65;;;10.30;54.50;;;;;;4993658;28;20044;-70
2022/02/25 11:46:04;;;;;;;6.53;2.00;;;10.40;54.10;;;;;;4993859;28;20045;-69
2022/02/25 11:48:57;;;;;;;14.25;4.40;;;10.10;54.20;;;;;;5000292;28;20513;-70
2022/02/25 11:51:25;;;;;;;15.15;5.80;;;9.80;57.10;;;;;;4992930;28;20549;-68
2022/02/25 11:54:18;;;;;;;10.63;4.22;;;9.70;55.80;;;;;;4993127;28;20045;-69
2022/02/25 11:56:44;;;;;;;10.48;2.25;;;9.50;55.60;;;;;;4964568;28;20042;-70
2022/02/25 11:59:10;;;;;;;11.27;3.15;;;9.20;53.80;;;;;;4994392;28;20025;-70
2022/02/25 12:02:13;;;;;;;32.25;14.50;;;9.10;55.50;;;;;;4997752;28;20467;-70
2022/02/25 12:04:42;;;;;;;7.00;2.65;;;9.10;55.20;;;;;;4999326;28;20375;-68
2022/02/25 12:07:13;;;;;;;6.00;1.88;;;9.20;54.80;;;;;;4994543;28;20030;-70
2022/02/25 12:09:55;;;;;;;8.90;3.80;;;9.10;54.70;;;;;;4986020;28;20149;-70
2022/02/25 12:12:23;;;;;;;2.70;1.45;;;9.30;56.10;;;;;;4996114;28;20034;-70
2022/02/25 12:15:22;;;;;;;8.55;3.67;;;9.30;55.70;;;;;;4996152;28;20151;-68
2022/02/25 12:18:03;;;;;;;7.28;4.07;;;9.50;55.60;;;;;;4992525;28;20411;-69
2022/02/25 12:20:36;;;;;;;7.70;3.60;;;9.50;54.90;;;;;;4997831;28;20471;-70
2022/02/25 12:23:09;;;;;;;16.95;5.03;;;9.30;55.20;;;;;;4992770;28;20042;-70
2022/02/25 12:25:43;;;;;;;7.05;1.98;;;9.00;55.50;;;;;;4992724;28;20040;-69
2022/02/25 12:28:27;;;;;;;7.97;2.25;;;8.40;57.70;;;;;;4996128;28;20049;-69
2022/02/25 12:31:17;;;;;;;8.43;2.25;;;8.20;58.20;;;;;;4994178;28;20512;-69
2022/02/25 12:33:43;;;;;;;16.40;6.35;;;8.10;58.80;;;;;;4992770;28;20125;-70
2022/02/25 12:36:16;;;;;;;18.33;5.53;;;8.10;58.70;;;;;;4998691;28;20105;-70
2022/02/25 12:38:50;;;;;;;7.97;2.75;;;8.20;58.80;;;;;;4993878;28;20127;-70
2022/02/25 12:41:19;;;;;;;18.23;5.00;;;8.20;59.40;;;;;;4990445;28;20034;-70
2022/02/25 12:43:45;;;;;;;12.48;5.47;;;7.90;60.80;;;;;;4992932;28;20033;-70
2022/02/25 12:46:11;;;;;;;11.38;3.88;;;8.00;60.40;;;;;;4995761;28;20414;-72
2022/02/25 12:48:36;;;;;;;6.38;1.90;;;8.00;61.10;;;;;;4992358;28;20137;-69
2022/02/25 12:51:03;;;;;;;9.25;3.80;;;7.70;62.40;;;;;;4996472;28;20026;-70
2022/02/25 12:53:29;;;;;;;8.57;2.25;;;7.70;64.00;;;;;;4992684;28;20453;-70
2022/02/25 12:55:58;;;;;;;10.95;2.38;;;7.50;62.90;;;;;;4996414;28;20038;-70
2022/02/25 12:58:34;;;;;;;11.93;4.30;;;7.30;63.20;;;;;;4995538;28;20924;-69
2022/02/25 13:01:00;;;;;;;5.55;1.20;;;7.30;63.90;;;;;;4995739;28;20048;-69